Time;durP1;ratioP1;P1;durP2;ratioP2;P2;SDS_P1;SDS_P2;PMS_P1;PMS_P2;Temp;Humidity;BMP_temperature;BMP_pressure;BME280_temperature;BME280_humidity;BME280_pressure;Samples;Min_cycle;Max_cycle;Signal;HPM_P1;HPM_P2
2021/12/02 00:01:17;;;;;;;11.10;3.30;;;4.70;99.90;;;;;;5015069;28;20067;-76
2021/12/02 00:03:44;;;;;;;5.15;2.70;;;4.70;99.90;;;;;;5014467;28;20030;-77
2021/12/02 00:06:14;;;;;;;7.35;2.20;;;4.70;99.90;;;;;;5013793;28;20504;-79
2021/12/02 00:08:40;;;;;;;4.72;2.50;;;4.70;99.90;;;;;;5013213;28;20384;-76
2021/12/02 00:11:06;;;;;;;7.35;2.70;;;4.70;99.90;;;;;;5013820;28;20492;-76
2021/12/02 00:21:25;;;;;;;7.75;2.40;;;4.90;99.90;;;;;;5015102;28;20489;-76
2021/12/02 00:24:04;;;;;;;10.77;2.92;;;5.00;99.90;;;;;;5014319;28;20056;-78
2021/12/02 00:26:31;;;;;;;5.70;1.98;;;5.00;99.90;;;;;;5013239;28;20022;-76
2021/12/02 00:28:59;;;;;;;8.32;2.30;;;5.00;99.90;;;;;;5014454;28;20045;-79
2021/12/02 00:31:30;;;;;;;7.78;2.15;;;5.00;99.90;;;;;;5011922;28;20494;-79
2021/12/02 00:34:02;;;;;;;3.93;1.40;;;5.00;99.90;;;;;;5013613;28;20113;-76
2021/12/02 00:36:31;;;;;;;6.50;2.88;;;5.10;99.90;;;;;;5012877;28;20099;-79
2021/12/02 00:38:57;;;;;;;3.88;1.60;;;5.00;99.90;;;;;;5013399;28;20156;-75
2021/12/02 00:41:26;;;;;;;5.57;2.00;;;5.00;99.90;;;;;;5013294;28;20018;-75
2021/12/02 00:43:55;;;;;;;5.35;1.88;;;5.10;99.90;;;;;;5014150;28;20033;-78
2021/12/02 00:46:23;;;;;;;11.02;4.07;;;5.10;99.90;;;;;;5013100;28;20030;-77
2021/12/02 00:48:50;;;;;;;6.43;2.72;;;5.00;99.90;;;;;;5012998;28;20026;-76
2021/12/02 00:51:17;;;;;;;7.55;2.35;;;5.10;99.90;;;;;;5012048;28;20014;-81
2021/12/02 00:53:51;;;;;;;7.55;2.15;;;5.10;99.90;;;;;;5012917;28;20030;-76
2021/12/02 00:56:17;;;;;;;10.40;2.10;;;5.10;99.90;;;;;;5012734;28;20026;-76
2021/12/02 00:58:48;;;;;;;8.73;2.63;;;5.20;99.90;;;;;;5012154;28;20033;-81
2021/12/02 01:01:18;;;;;;;5.68;1.85;;;5.10;99.90;;;;;;5014003;28;20348;-78
2021/12/02 01:03:44;;;;;;;5.65;2.42;;;5.00;99.90;;;;;;5014034;28;20030;-80
2021/12/02 01:06:10;;;;;;;7.88;2.80;;;4.90;99.90;;;;;;5013296;28;20456;-78
2021/12/02 01:08:37;;;;;;;6.32;2.15;;;4.80;99.90;;;;;;5013449;28;20109;-79
2021/12/02 01:11:08;;;;;;;6.68;2.58;;;4.80;99.90;;;;;;5012816;28;20382;-78
2021/12/02 01:13:34;;;;;;;4.40;1.83;;;4.80;99.90;;;;;;5012896;28;20095;-78
2021/12/02 01:16:00;;;;;;;3.40;1.48;;;4.80;99.90;;;;;;5013578;28;20672;-79
2021/12/02 01:18:25;;;;;;;5.88;1.75;;;4.80;99.90;;;;;;5011636;28;20441;-77
2021/12/02 01:20:53;;;;;;;4.68;1.83;;;4.70;99.90;;;;;;5011899;28;20053;-78
2021/12/02 01:23:22;;;;;;;4.43;1.60;;;4.80;99.90;;;;;;5013525;28;20041;-77
2021/12/02 01:26:03;;;;;;;3.65;1.60;;;4.80;99.90;;;;;;5012042;28;20034;-77
2021/12/02 01:28:29;;;;;;;3.25;1.40;;;4.80;99.90;;;;;;5011827;28;20478;-77
2021/12/02 01:30:55;;;;;;;3.53;1.83;;;4.70;99.90;;;;;;5012324;28;20026;-77
2021/12/02 01:33:22;;;;;;;3.70;1.60;;;4.70;99.90;;;;;;5010075;28;20034;-78
2021/12/02 01:35:50;;;;;;;4.07;1.48;;;4.70;99.90;;;;;;5011788;28;20523;-79
2021/12/02 01:38:16;;;;;;;2.40;1.40;;;4.70;99.90;;;;;;5012017;28;20026;-78
2021/12/02 01:40:45;;;;;;;4.45;1.55;;;4.70;99.90;;;;;;5011440;28;20025;-77
2021/12/02 01:43:17;;;;;;;3.08;1.50;;;4.70;99.90;;;;;;5009892;28;20045;-77
2021/12/02 01:45:42;;;;;;;1.48;1.38;;;4.70;99.90;;;;;;5011169;28;20506;-78
2021/12/02 01:48:21;;;;;;;2.00;1.50;;;4.80;99.90;;;;;;5011231;28;20018;-76
2021/12/02 01:51:01;;;;;;;2.85;1.30;;;4.80;99.90;;;;;;5011621;28;20124;-77
2021/12/02 01:53:31;;;;;;;4.78;1.80;;;4.80;99.90;;;;;;5011585;28;20061;-78
2021/12/02 01:56:14;;;;;;;5.03;1.80;;;4.90;99.90;;;;;;5012180;28;20095;-78
2021/12/02 01:58:46;;;;;;;2.28;1.40;;;4.90;99.90;;;;;;5011589;28;20037;-78
2021/12/02 02:01:22;;;;;;;4.22;1.60;;;4.90;99.90;;;;;;5011015;28;20133;-78
2021/12/02 02:03:50;;;;;;;3.92;1.73;;;5.00;99.90;;;;;;5012834;28;20037;-79
2021/12/02 02:06:36;;;;;;;3.53;1.70;;;5.00;99.90;;;;;;5011830;28;20056;-79
2021/12/02 02:09:03;;;;;;;3.15;1.77;;;5.00;99.90;;;;;;5012330;28;20359;-78
2021/12/02 02:11:30;;;;;;;5.82;1.90;;;5.00;99.90;;;;;;5011048;28;20489;-77
2021/12/02 02:13:57;;;;;;;2.38;1.38;;;5.00;99.90;;;;;;5011665;28;20026;-79
2021/12/02 02:16:23;;;;;;;3.10;1.52;;;5.00;99.90;;;;;;5011950;28;20485;-77
2021/12/02 02:18:49;;;;;;;5.97;2.42;;;5.00;99.90;;;;;;5011212;28;20045;-78
2021/12/02 02:21:17;;;;;;;2.80;1.70;;;4.90;99.90;;;;;;5012409;28;20110;-78
2021/12/02 02:23:49;;;;;;;1.75;1.35;;;4.90;99.90;;;;;;5010540;28;20030;-77
2021/12/02 02:26:17;;;;;;;;;;;4.80;99.90;;;;;;5012916;28;20385;-78
2021/12/02 02:28:42;;;;;;;2.15;1.23;;;4.70;99.90;;;;;;5012398;28;20000;-78
2021/12/02 02:31:08;;;;;;;3.63;1.30;;;4.70;99.90;;;;;;5010754;28;20121;-80
2021/12/02 02:33:37;;;;;;;3.75;1.42;;;4.60;99.90;;;;;;5010615;28;20406;-80
2021/12/02 02:36:05;;;;;;;3.03;1.63;;;4.50;99.90;;;;;;5011018;28;20018;-78
2021/12/02 02:38:30;;;;;;;4.57;1.92;;;4.50;99.90;;;;;;5010701;28;20429;-79
2021/12/02 02:40:58;;;;;;;3.78;1.73;;;4.40;99.90;;;;;;5011160;28;20017;-78
2021/12/02 02:43:26;;;;;;;2.05;1.45;;;4.40;99.90;;;;;;5011598;28;20042;-77
2021/12/02 02:45:51;;;;;;;2.67;1.48;;;4.50;99.90;;;;;;5011145;28;20105;-79
2021/12/02 02:48:17;;;;;;;3.90;1.80;;;4.50;99.90;;;;;;5010829;28;20129;-79
2021/12/02 02:50:42;;;;;;;2.78;1.70;;;4.60;99.90;;;;;;5010287;28;20440;-79
2021/12/02 02:53:19;;;;;;;3.67;1.70;;;4.60;99.90;;;;;;5011959;28;20034;-80
2021/12/02 02:55:57;;;;;;;3.40;1.50;;;4.50;99.90;;;;;;5011875;28;20033;-79
2021/12/02 03:01:06;;;;;;;3.17;1.40;;;4.50;99.90;;;;;;5012206;28;20124;-78
2021/12/02 03:06:44;;;;;;;2.50;1.20;;;4.50;99.90;;;;;;4958130;28;20047;-78
2021/12/02 03:11:58;;;;;;;4.03;1.50;;;4.60;99.90;;;;;;5011700;28;20040;-78
2021/12/02 03:14:34;;;;;;;3.85;2.08;;;4.60;99.90;;;;;;5010674;28;20062;-79
2021/12/02 03:16:59;;;;;;;3.00;1.40;;;4.60;99.90;;;;;;5011968;28;20025;-79
2021/12/02 03:19:27;;;;;;;5.43;1.75;;;4.50;99.90;;;;;;5009374;28;20409;-78
2021/12/02 03:21:54;;;;;;;6.15;1.73;;;4.50;99.90;;;;;;5010904;28;20022;-79
2021/12/02 03:24:20;;;;;;;4.10;1.23;;;4.60;99.90;;;;;;5011498;28;20116;-77
2021/12/02 03:26:47;;;;;;;2.30;1.30;;;4.60;99.90;;;;;;5010028;28;20018;-79
2021/12/02 03:29:12;;;;;;;2.40;1.20;;;4.60;99.90;;;;;;5010381;28;20034;-79
2021/12/02 03:31:38;;;;;;;2.70;1.30;;;4.50;99.90;;;;;;5010473;28;20116;-78
2021/12/02 03:34:05;;;;;;;4.07;1.55;;;4.40;99.90;;;;;;5009770;28;20117;-78
2021/12/02 03:36:31;;;;;;;2.40;1.20;;;4.40;99.90;;;;;;5009982;28;20053;-79
2021/12/02 03:38:56;;;;;;;2.17;1.30;;;4.40;99.90;;;;;;5010133;28;20489;-79
2021/12/02 03:41:24;;;;;;;1.20;1.10;;;4.30;99.90;;;;;;5009855;28;20458;-78
2021/12/02 03:43:50;;;;;;;1.98;1.05;;;4.30;99.90;;;;;;5010560;28;20042;-78
2021/12/02 03:46:18;;;;;;;3.42;1.60;;;4.30;99.90;;;;;;5011553;28;20030;-79
2021/12/02 03:48:45;;;;;;;1.77;1.23;;;4.40;99.90;;;;;;5009767;28;20405;-77
2021/12/02 03:51:11;;;;;;;4.43;1.20;;;4.40;99.90;;;;;;5010511;28;20018;-76
2021/12/02 03:53:37;;;;;;;4.70;1.25;;;4.40;99.90;;;;;;5010748;28;20075;-77
2021/12/02 03:56:06;;;;;;;1.60;1.33;;;4.40;99.90;;;;;;5010202;28;20466;-77
2021/12/02 03:58:32;;;;;;;3.08;0.90;;;4.30;99.90;;;;;;5009916;28;20033;-78
2021/12/02 04:00:58;;;;;;;1.92;1.17;;;4.30;99.90;;;;;;5009845;28;20018;-79
2021/12/02 04:03:23;;;;;;;1.20;0.85;;;4.30;99.90;;;;;;5009831;28;20416;-78
2021/12/02 04:05:49;;;;;;;2.08;1.00;;;4.30;99.90;;;;;;5010172;28;20390;-78
2021/12/02 04:08:15;;;;;;;1.50;1.20;;;4.30;99.90;;;;;;5012657;28;20030;-78
2021/12/02 04:10:42;;;;;;;1.65;0.90;;;4.30;99.90;;;;;;5013862;28;20029;-80
2021/12/02 04:13:25;;;;;;;1.60;0.90;;;4.20;99.90;;;;;;5014916;28;20018;-78
2021/12/02 04:15:57;;;;;;;1.58;0.90;;;4.20;99.90;;;;;;5013625;28;20041;-78
2021/12/02 04:18:23;;;;;;;1.80;0.70;;;4.20;99.90;;;;;;5013353;28;20409;-81
2021/12/02 04:20:48;;;;;;;1.55;0.73;;;4.20;99.90;;;;;;5013715;28;20022;-79
2021/12/02 04:23:14;;;;;;;0.98;0.90;;;4.30;99.90;;;;;;5012353;28;20474;-77
2021/12/02 04:25:39;;;;;;;2.85;0.98;;;4.20;99.90;;;;;;5013619;28;20030;-77
2021/12/02 04:28:05;;;;;;;0.85;0.85;;;4.20;99.90;;;;;;5014649;28;20470;-77
2021/12/02 04:30:31;;;;;;;2.60;0.88;;;4.20;99.90;;;;;;5013806;28;20034;-77
2021/12/02 04:32:56;;;;;;;0.85;0.77;;;4.20;99.90;;;;;;5013624;28;20022;-77
2021/12/02 04:35:22;;;;;;;1.65;0.93;;;4.20;99.90;;;;;;5013475;28;20047;-77
2021/12/02 04:37:51;;;;;;;3.65;0.90;;;4.10;99.90;;;;;;5012589;28;20025;-80
2021/12/02 04:40:19;;;;;;;2.63;0.80;;;4.10;99.90;;;;;;5013400;28;20474;-77
2021/12/02 04:42:45;;;;;;;0.90;0.70;;;4.10;99.90;;;;;;5012397;28;20398;-77
2021/12/02 04:45:11;;;;;;;3.90;1.65;;;4.10;99.90;;;;;;5013003;28;20033;-78
2021/12/02 04:47:37;;;;;;;0.95;0.60;;;4.10;99.90;;;;;;5012703;28;20022;-78
2021/12/02 04:50:05;;;;;;;0.77;0.77;;;4.10;99.90;;;;;;5012482;28;20084;-78
2021/12/02 04:52:31;;;;;;;0.73;0.70;;;4.20;99.90;;;;;;5012433;28;20022;-78
2021/12/02 04:54:56;;;;;;;0.73;0.70;;;4.20;99.90;;;;;;5012760;28;20026;-77
2021/12/02 04:57:22;;;;;;;1.23;0.98;;;4.30;99.90;;;;;;5012110;28;20378;-79
2021/12/02 04:59:48;;;;;;;2.35;0.85;;;4.30;99.90;;;;;;5013039;28;20378;-78
2021/12/02 05:02:13;;;;;;;1.05;0.70;;;4.30;99.90;;;;;;5012661;28;20378;-77
2021/12/02 05:04:39;;;;;;;3.25;2.13;;;4.30;99.90;;;;;;5011462;28;20505;-77
2021/12/02 05:07:05;;;;;;;1.63;0.73;;;4.20;99.90;;;;;;5005061;28;20026;-77
2021/12/02 05:09:30;;;;;;;1.75;0.82;;;4.20;99.90;;;;;;5010558;28;20108;-78
2021/12/02 05:11:56;;;;;;;2.88;1.00;;;4.20;99.90;;;;;;5012180;28;20026;-79
2021/12/02 05:14:21;;;;;;;4.97;1.80;;;4.10;99.90;;;;;;5012500;28;20474;-78
2021/12/02 05:16:47;;;;;;;1.48;1.00;;;4.10;99.90;;;;;;5010783;28;20014;-78
2021/12/02 05:19:13;;;;;;;2.15;1.00;;;4.10;99.90;;;;;;5004488;28;20072;-77
2021/12/02 05:21:38;;;;;;;3.22;1.30;;;4.10;99.90;;;;;;5009006;28;20030;-78
2021/12/02 05:24:04;;;;;;;442.77;22.48;;;4.10;99.90;;;;;;5009284;28;20053;-77
2021/12/02 05:26:30;;;;;;;2.72;1.30;;;4.10;99.90;;;;;;5011102;28;20032;-78
2021/12/02 05:28:55;;;;;;;1.70;1.27;;;4.20;99.90;;;;;;5012467;28;20116;-77
2021/12/02 05:31:22;;;;;;;68.40;3.60;;;4.20;99.90;;;;;;5007994;28;20026;-75
2021/12/02 05:33:47;;;;;;;17.73;1.88;;;4.20;99.90;;;;;;5007795;28;20026;-76
2021/12/02 05:36:13;;;;;;;3.42;1.40;;;4.10;99.90;;;;;;5012147;28;20029;-73
2021/12/02 05:38:40;;;;;;;2.00;1.50;;;4.10;99.90;;;;;;5011946;28;20022;-72
2021/12/02 05:41:06;;;;;;;2.80;1.45;;;4.10;99.90;;;;;;5012969;28;20018;-76
2021/12/02 05:43:32;;;;;;;2.72;2.08;;;4.10;99.90;;;;;;5012178;28;20592;-81
2021/12/02 05:45:59;;;;;;;3.20;1.25;;;4.10;99.90;;;;;;5003122;28;20075;-79
2021/12/02 05:48:25;;;;;;;1.63;0.90;;;4.10;99.90;;;;;;4995163;28;20034;-77
2021/12/02 05:50:50;;;;;;;2.60;1.27;;;4.00;99.90;;;;;;5012568;28;20053;-81
2021/12/02 05:53:16;;;;;;;3.47;1.63;;;4.00;99.90;;;;;;5008846;28;20029;-76
2021/12/02 05:55:42;;;;;;;2.42;1.20;;;4.00;99.90;;;;;;5006172;28;20045;-75
2021/12/02 05:58:10;;;;;;;1.30;0.80;;;3.80;99.90;;;;;;5010907;28;20030;-76
2021/12/02 06:00:36;;;;;;;1.42;0.88;;;3.80;99.90;;;;;;5010150;28;20053;-78
2021/12/02 06:03:02;;;;;;;1.48;0.82;;;3.80;99.90;;;;;;5011052;28;20112;-76
2021/12/02 06:05:28;;;;;;;2.30;1.23;;;3.70;99.90;;;;;;5009161;28;20034;-76
2021/12/02 06:07:57;;;;;;;1.45;0.90;;;3.70;99.90;;;;;;5006188;28;20496;-77
2021/12/02 06:10:23;;;;;;;1.27;1.10;;;3.70;99.90;;;;;;5007633;28;20038;-78
2021/12/02 17:35:22;;;;;;;48.38;28.35;;;3.20;99.90;;;;;;5730146;23;20046;-74
2021/12/02 17:37:49;;;;;;;60.45;33.55;;;3.20;99.90;;;;;;4972002;28;20030;-73
2021/12/02 17:40:23;;;;;;;42.70;25.17;;;3.20;99.90;;;;;;4974426;28;20027;-73
2021/12/02 17:42:50;;;;;;;23.27;13.50;;;3.20;99.90;;;;;;4972918;28;20038;-75
2021/12/02 17:45:16;;;;;;;13.32;7.63;;;3.20;99.90;;;;;;4969535;28;20070;-73
2021/12/02 17:47:42;;;;;;;10.38;5.10;;;3.20;99.90;;;;;;4970236;28;20035;-73
2021/12/02 17:50:13;;;;;;;5.70;3.83;;;3.20;99.90;;;;;;4969989;28;20039;-73
2021/12/02 17:52:39;;;;;;;4.53;3.20;;;3.20;99.90;;;;;;4969681;28;20030;-76
2021/12/02 17:55:07;;;;;;;6.82;2.90;;;3.20;99.90;;;;;;4969509;28;20027;-76
2021/12/02 17:57:32;;;;;;;4.93;2.97;;;3.20;99.90;;;;;;4969492;28;20508;-75
2021/12/02 17:59:58;;;;;;;7.15;3.13;;;3.20;99.90;;;;;;4968894;28;20031;-76
2021/12/02 18:02:24;;;;;;;6.28;2.40;;;3.20;99.90;;;;;;4969670;28;20026;-77
2021/12/02 18:04:49;;;;;;;4.28;2.90;;;3.20;99.90;;;;;;4969085;28;20074;-75
2021/12/02 18:07:17;;;;;;;7.45;3.65;;;3.20;99.90;;;;;;4969114;28;20450;-76
2021/12/02 18:09:43;;;;;;;7.97;4.68;;;3.30;99.90;;;;;;4969100;28;20394;-74
2021/12/02 18:12:10;;;;;;;5.80;3.60;;;3.20;99.90;;;;;;4967921;28;20023;-79
2021/12/02 18:14:36;;;;;;;49.58;6.13;;;3.30;99.90;;;;;;4950912;29;20035;-78
2021/12/02 18:17:02;;;;;;;4.55;2.75;;;3.30;99.90;;;;;;4949896;29;20122;-77
2021/12/02 18:19:28;;;;;;;5.20;3.17;;;3.20;99.90;;;;;;4933219;29;20028;-75
2021/12/02 18:21:54;;;;;;;8.32;5.60;;;3.20;99.90;;;;;;4965360;28;20042;-74
2021/12/02 18:24:19;;;;;;;9.70;6.80;;;3.20;99.90;;;;;;4986642;28;20022;-75
2021/12/02 18:26:46;;;;;;;9.25;4.88;;;3.20;99.90;;;;;;4979140;28;20038;-76
2021/12/02 18:29:12;;;;;;;5.03;2.95;;;3.20;99.90;;;;;;4966190;28;20069;-79
2021/12/02 18:31:38;;;;;;;9.32;3.88;;;3.20;99.90;;;;;;4948782;29;20031;-77
2021/12/02 18:34:05;;;;;;;4.50;2.97;;;3.20;99.90;;;;;;4955044;28;20023;-77
2021/12/02 18:36:31;;;;;;;7.03;3.00;;;3.20;99.90;;;;;;4967660;28;20150;-76
2021/12/02 18:39:00;;;;;;;3.28;2.65;;;3.20;99.90;;;;;;4967218;28;20113;-77
2021/12/02 18:41:27;;;;;;;5.05;3.15;;;3.20;99.90;;;;;;4967466;28;20034;-77
2021/12/02 18:43:55;;;;;;;5.47;2.90;;;3.20;99.90;;;;;;4981767;28;20026;-74
2021/12/02 18:46:22;;;;;;;4.88;2.90;;;3.20;99.90;;;;;;4966576;28;20027;-74
2021/12/02 18:48:49;;;;;;;7.38;3.67;;;3.20;99.90;;;;;;4966000;28;20078;-74
2021/12/02 18:51:16;;;;;;;4.65;3.13;;;3.10;99.90;;;;;;4965601;28;20510;-79
2021/12/02 18:53:43;;;;;;;4.63;2.67;;;3.10;99.90;;;;;;4933437;28;20050;-73
2021/12/02 18:56:08;;;;;;;4.60;2.65;;;3.10;99.90;;;;;;4968216;28;20031;-74
2021/12/02 18:58:35;;;;;;;5.00;2.60;;;3.10;99.90;;;;;;4964559;28;20034;-74
2021/12/02 19:01:01;;;;;;;3.13;2.83;;;3.10;99.90;;;;;;4969354;28;20031;-73
2021/12/02 19:03:27;;;;;;;6.70;3.00;;;3.10;99.90;;;;;;4967038;28;20030;-73
2021/12/02 19:06:23;;;;;;;3.63;2.78;;;3.00;99.90;;;;;;4968078;28;20062;-74
2021/12/02 19:27:35;;;;;;;5.68;3.80;;;2.90;99.90;;;;;;4969499;28;20077;-76
2021/12/02 19:30:01;;;;;;;6.20;3.80;;;2.90;99.90;;;;;;4966574;28;20050;-83
2021/12/02 19:32:30;;;;;;;6.97;5.07;;;2.90;99.90;;;;;;4962291;28;20034;-82
2021/12/02 19:34:57;;;;;;;6.78;4.78;;;2.80;99.90;;;;;;4966821;28;20062;-83
2021/12/02 19:37:24;;;;;;;8.02;4.85;;;2.80;99.90;;;;;;4967774;28;20109;-80
2021/12/02 19:39:49;;;;;;;9.82;5.43;;;2.80;99.90;;;;;;4969698;28;20050;-80
2021/12/02 19:42:15;;;;;;;10.45;5.13;;;2.80;99.90;;;;;;4970239;28;20073;-80
2021/12/02 19:44:41;;;;;;;10.35;5.13;;;2.80;99.90;;;;;;4970586;28;20038;-80
2021/12/02 19:47:08;;;;;;;10.30;5.72;;;2.80;99.90;;;;;;4968566;28;20015;-79
2021/12/02 19:49:36;;;;;;;6.03;5.20;;;2.70;99.90;;;;;;4981212;28;20063;-81
2021/12/02 19:52:02;;;;;;;6.22;4.82;;;2.80;99.90;;;;;;4970792;28;20023;-80
2021/12/02 19:54:28;;;;;;;7.35;4.53;;;2.70;99.90;;;;;;4972673;28;20057;-81
2021/12/02 19:56:53;;;;;;;7.38;5.95;;;2.70;99.90;;;;;;4971019;28;20089;-81
2021/12/02 19:59:20;;;;;;;8.50;5.38;;;2.70;99.90;;;;;;4972306;28;20023;-75
2021/12/02 20:01:47;;;;;;;7.60;5.30;;;2.70;99.90;;;;;;4970527;28;20026;-80
2021/12/02 20:04:13;;;;;;;7.88;5.45;;;2.70;99.90;;;;;;4979435;28;20042;-78
2021/12/02 20:06:39;;;;;;;6.13;4.97;;;2.70;99.90;;;;;;4973157;28;20037;-77
2021/12/02 20:09:05;;;;;;;6.47;5.07;;;2.70;99.90;;;;;;4970582;28;20528;-74
2021/12/02 20:11:31;;;;;;;9.70;5.68;;;2.70;99.90;;;;;;4971477;28;20057;-74
2021/12/02 20:13:58;;;;;;;8.20;5.03;;;2.70;99.90;;;;;;4971621;28;20471;-75
2021/12/02 20:16:28;;;;;;;7.22;5.05;;;2.70;99.90;;;;;;4971288;28;20043;-74
2021/12/02 20:18:55;;;;;;;6.43;4.82;;;2.60;99.90;;;;;;4970460;28;20023;-74
2021/12/02 20:21:21;;;;;;;9.38;5.00;;;2.60;99.90;;;;;;4983473;28;20029;-74
2021/12/02 20:23:48;;;;;;;7.57;5.25;;;2.60;99.90;;;;;;4995056;28;20022;-75
2021/12/02 20:26:17;;;;;;;7.68;5.45;;;2.60;99.90;;;;;;4975794;28;20023;-76
2021/12/02 20:28:43;;;;;;;5.70;4.57;;;2.60;99.90;;;;;;4972907;28;20033;-79
2021/12/02 20:31:13;;;;;;;6.95;4.90;;;2.60;99.90;;;;;;4973724;28;20024;-77
2021/12/02 20:33:39;;;;;;;8.65;4.97;;;2.50;99.90;;;;;;4977302;28;20386;-74
2021/12/02 20:36:05;;;;;;;6.10;4.72;;;2.60;99.90;;;;;;4970317;28;20044;-78
2021/12/02 20:38:31;;;;;;;6.63;4.47;;;2.50;99.90;;;;;;4976652;28;20679;-78
2021/12/02 20:40:57;;;;;;;6.80;4.85;;;2.50;99.90;;;;;;4972375;28;20085;-75
2021/12/02 20:43:24;;;;;;;7.60;4.70;;;2.50;99.90;;;;;;4979697;28;20406;-74
2021/12/02 20:45:57;;;;;;;8.10;4.50;;;2.50;99.90;;;;;;4973359;28;20122;-74
2021/12/02 20:48:31;;;;;;;6.82;4.50;;;2.50;99.90;;;;;;4974505;28;20073;-80
2021/12/02 20:51:00;;;;;;;6.82;4.55;;;2.50;99.90;;;;;;4974247;28;20489;-76
2021/12/02 20:53:26;;;;;;;4.90;4.03;;;2.50;99.90;;;;;;4972602;28;20030;-76
2021/12/02 20:55:56;;;;;;;5.72;3.80;;;2.40;99.90;;;;;;4974185;28;20050;-75
2021/12/02 20:58:23;;;;;;;5.32;3.97;;;2.40;99.90;;;;;;4973914;28;20031;-76
2021/12/02 21:00:49;;;;;;;5.30;3.45;;;2.40;99.90;;;;;;4974493;28;20467;-78
2021/12/02 21:03:17;;;;;;;5.93;3.80;;;2.40;99.90;;;;;;4973480;28;20027;-78
2021/12/02 21:05:44;;;;;;;5.80;3.50;;;2.40;99.90;;;;;;4973458;28;20057;-75
2021/12/02 21:08:10;;;;;;;4.70;3.65;;;2.40;99.90;;;;;;4973102;28;20019;-75
2021/12/02 21:10:37;;;;;;;6.20;4.18;;;2.40;99.90;;;;;;4974779;28;20030;-76
2021/12/02 21:13:04;;;;;;;5.13;3.47;;;2.40;99.90;;;;;;4975007;28;20026;-75
2021/12/02 21:15:30;;;;;;;4.60;3.58;;;2.40;99.90;;;;;;4973906;28;20162;-75
2021/12/02 21:17:59;;;;;;;5.25;3.65;;;2.40;99.90;;;;;;4974745;28;20459;-75
2021/12/02 21:20:26;;;;;;;5.38;4.10;;;2.40;99.90;;;;;;4973296;28;20022;-75
2021/12/02 21:22:54;;;;;;;5.35;3.90;;;2.30;99.90;;;;;;4972693;28;20046;-76
2021/12/02 21:25:21;;;;;;;7.38;4.53;;;2.30;99.90;;;;;;4971612;28;20031;-77
2021/12/02 21:27:47;;;;;;;8.00;4.95;;;2.30;99.90;;;;;;4971173;28;20015;-76
2021/12/02 21:30:15;;;;;;;5.78;4.55;;;2.30;99.90;;;;;;4973392;28;20081;-77
2021/12/02 21:32:41;;;;;;;7.15;4.68;;;2.30;99.90;;;;;;4974355;28;20027;-76
2021/12/02 21:35:08;;;;;;;6.35;4.68;;;2.30;99.90;;;;;;4972555;28;20471;-76
2021/12/02 21:37:47;;;;;;;5.95;4.65;;;2.30;99.90;;;;;;4972506;28;20050;-76
2021/12/02 21:40:18;;;;;;;8.52;4.88;;;2.30;99.90;;;;;;4973006;28;20053;-76
2021/12/02 21:42:45;;;;;;;10.07;6.03;;;2.30;99.90;;;;;;4973782;28;20062;-75
2021/12/02 21:45:13;;;;;;;9.75;5.53;;;2.20;99.90;;;;;;4974358;28;20082;-75
2021/12/02 21:47:38;;;;;;;8.98;5.80;;;2.30;99.90;;;;;;4972912;28;20031;-76
2021/12/02 21:50:07;;;;;;;8.80;5.25;;;2.20;99.90;;;;;;4972425;28;20034;-75
2021/12/02 21:52:33;;;;;;;7.88;5.20;;;2.30;99.90;;;;;;4972111;28;20094;-74
2021/12/02 21:54:58;;;;;;;8.20;5.43;;;2.20;99.90;;;;;;4974099;28;20479;-75
2021/12/02 21:57:25;;;;;;;7.15;4.90;;;2.20;99.90;;;;;;4972960;28;20019;-75
2021/12/02 22:00:06;;;;;;;7.25;5.13;;;2.20;99.90;;;;;;4972852;28;20463;-75
2021/12/02 22:02:33;;;;;;;10.20;5.60;;;2.20;99.90;;;;;;4972662;28;20546;-76
2021/12/02 22:04:59;;;;;;;9.95;6.10;;;2.20;99.90;;;;;;4971869;28;20031;-75
2021/12/02 22:07:26;;;;;;;9.07;5.80;;;2.20;99.90;;;;;;4973416;28;20475;-75
2021/12/02 22:09:52;;;;;;;8.95;6.07;;;2.20;99.90;;;;;;4972038;28;20019;-76
2021/12/02 22:12:18;;;;;;;8.98;5.68;;;2.10;99.90;;;;;;4972608;28;20027;-76
2021/12/02 22:14:44;;;;;;;7.55;5.18;;;2.10;99.90;;;;;;4972553;28;20026;-76
2021/12/02 22:17:10;;;;;;;6.68;5.40;;;2.10;99.90;;;;;;4971688;28;20027;-75
2021/12/02 22:19:36;;;;;;;7.35;5.13;;;2.10;99.90;;;;;;4973371;28;20467;-75
2021/12/02 22:22:03;;;;;;;7.18;5.20;;;2.10;99.90;;;;;;4973593;28;20054;-75
2021/12/02 22:24:31;;;;;;;7.72;5.57;;;2.10;99.90;;;;;;4972579;28;20030;-80
2021/12/02 22:26:56;;;;;;;6.35;5.00;;;2.10;99.90;;;;;;4972388;28;20368;-75
2021/12/02 22:29:22;;;;;;;9.13;5.00;;;2.20;99.90;;;;;;4971981;28;20041;-74
2021/12/02 22:31:48;;;;;;;6.22;4.78;;;2.20;99.90;;;;;;4973268;28;20027;-76
2021/12/02 22:34:14;;;;;;;5.80;4.30;;;2.20;99.90;;;;;;4971914;28;20019;-74
2021/12/02 22:36:43;;;;;;;8.88;5.70;;;2.10;99.90;;;;;;4971824;28;20538;-75
2021/12/02 22:39:13;;;;;;;22.58;11.38;;;2.20;99.90;;;;;;4972984;28;20018;-75
2021/12/02 22:41:39;;;;;;;17.35;10.13;;;2.10;99.90;;;;;;4972080;28;20019;-75
2021/12/02 22:44:06;;;;;;;27.60;13.30;;;2.10;99.90;;;;;;4971728;28;20053;-74
2021/12/02 22:46:33;;;;;;;17.52;9.25;;;2.10;99.90;;;;;;4972328;28;20039;-75
2021/12/02 22:48:58;;;;;;;12.50;6.55;;;2.10;99.90;;;;;;4971769;28;20015;-74
2021/12/02 22:51:25;;;;;;;12.07;6.05;;;2.10;99.90;;;;;;4972269;28;20027;-75
2021/12/02 22:53:50;;;;;;;7.60;5.22;;;2.10;99.90;;;;;;4973177;28;20165;-74
2021/12/02 22:56:17;;;;;;;14.00;6.15;;;2.10;99.90;;;;;;4971364;28;20129;-74
2021/12/02 22:58:43;;;;;;;12.30;8.40;;;2.10;99.90;;;;;;4971521;28;20031;-75
2021/12/02 23:01:15;;;;;;;8.70;6.28;;;2.10;99.90;;;;;;4971159;28;20121;-74
2021/12/02 23:03:41;;;;;;;7.35;5.55;;;2.10;99.90;;;;;;4973011;28;20023;-75
2021/12/02 23:06:08;;;;;;;6.80;4.95;;;2.10;99.90;;;;;;4971009;28;20050;-76
2021/12/02 23:08:34;;;;;;;9.02;5.13;;;2.10;99.90;;;;;;4971494;28;20070;-78
2021/12/02 23:11:00;;;;;;;7.82;4.63;;;2.20;99.90;;;;;;4972496;28;20088;-74
2021/12/02 23:13:26;;;;;;;5.88;4.35;;;2.20;99.90;;;;;;4971801;28;20027;-74
2021/12/02 23:15:53;;;;;;;8.73;5.78;;;2.20;99.90;;;;;;4973055;28;20034;-75
2021/12/02 23:18:19;;;;;;;9.30;6.82;;;2.20;99.90;;;;;;4971520;28;20094;-74
2021/12/02 23:20:45;;;;;;;9.82;6.15;;;2.20;99.90;;;;;;4972067;28;20390;-74
2021/12/02 23:23:11;;;;;;;9.50;4.95;;;2.20;99.90;;;;;;4972761;28;20030;-78
2021/12/02 23:25:39;;;;;;;11.25;6.03;;;2.20;99.90;;;;;;4972338;28;20042;-75
2021/12/02 23:28:13;;;;;;;8.85;5.35;;;2.20;99.90;;;;;;4973580;28;20023;-74
2021/12/02 23:30:47;;;;;;;10.65;6.28;;;2.20;99.90;;;;;;4971322;28;20121;-75
2021/12/02 23:33:53;;;;;;;8.32;5.72;;;2.10;99.90;;;;;;4971181;28;20027;-74
2021/12/02 23:36:24;;;;;;;7.95;5.03;;;2.10;99.90;;;;;;4970256;28;20137;-75
2021/12/02 23:38:50;;;;;;;9.03;5.30;;;2.10;99.90;;;;;;4972846;28;20105;-74
2021/12/02 23:41:16;;;;;;;6.65;4.45;;;2.10;99.90;;;;;;4970293;28;20258;-75
2021/12/02 23:43:43;;;;;;;4.53;4.10;;;2.10;99.90;;;;;;4971247;28;20031;-75
2021/12/02 23:46:09;;;;;;;7.93;5.30;;;2.10;99.90;;;;;;4970748;28;20427;-75
2021/12/02 23:48:35;;;;;;;5.43;4.38;;;2.10;99.90;;;;;;4971265;28;20031;-75
2021/12/02 23:51:04;;;;;;;6.38;4.43;;;2.10;99.90;;;;;;4971124;28;20483;-77
2021/12/02 23:53:30;;;;;;;6.10;3.85;;;2.10;99.90;;;;;;4971853;28;20037;-75
2021/12/02 23:55:57;;;;;;;9.20;4.63;;;2.10;99.90;;;;;;4970756;28;20379;-74
2021/12/02 23:58:23;;;;;;;5.85;4.55;;;2.00;99.90;;;;;;4972487;28;20482;-75
